Terminal Aerodrome Forecast
Issued by NWS

Home | Current Version | Previous Version | Text Only | Print | Product List | Glossary On
Versions: 1 2 3 4 5 6 7 8 9 10 11 12 13 14
848
FTUS45 KABQ 241141
TAFFMN
TAF
KFMN 241141Z 2412/2512 09006KT P6SM VCSH BKN120
     FM241800 16008KT P6SM SCT090
     FM242300 06011KT P6SM VCSH BKN090
     FM250200 08013KT P6SM BKN080
     FM250600 09080KT P6SM SCT100=

USA.gov is the U.S. government's official web portal to all federal, state and local government web resources and services.